Latest Weather Observations for Bradshaw-Angallari Valley (Defence)

IDD60801

Issued at 11:21 am CST Tuesday 2 March 2021 (issued every 10 minutes, with the page automatically refreshed every 10 minutes)

About weather observations | Map of weather stations | Latest weather observations for NT | Other Formats
Station Details ID: 014808 Name: BRADSHAW - ANGALLARI VALLEY (DEFENCE) Lat: -15.44 Lon: 130.57 Height: 60.0 m
Data from the previous 72 hours. | See also: Recent months at Bradshaw-Angallari Valley (Defence)
Date/Time
CST
Temp
°C
App
Temp
°C
Dew
Point
°C
Rel
Hum
%
Delta-T
°C
Wind Press
QNH
hPa
Press
MSL
hPa
Rain since
9am
mm
Dir  Spd
km/h
Gust
km/h
Spd
kts
Gust
kts
02/11:00am 32.2 35.8 23.7 61 5.9 W 11 17 6 9 1009.6 1009.2 0.0
02/10:30am 31.8 35.2 24.1 63 5.4 W 13 19 7 10 1009.9 1009.5 0.0
02/10:00am 30.7 34.5 24.1 68 4.6 WSW 11 20 6 11 1009.9 1009.5 0.0
02/09:30am 29.9 33.0 24.1 71 4.0 W 15 24 8 13 1009.9 1009.5 0.0
02/09:00am 29.2 33.1 24.3 75 3.4 W 11 17 6 9 1009.7 1009.3 0.0
02/08:30am 28.2 33.1 24.6 81 2.5 WSW 7 13 4 7 1009.6 1009.2 0.0
02/08:00am 27.4 32.2 24.5 84 2.0 WSW 7 13 4 7 1009.5 1009.1 0.0
02/07:30am 26.6 31.9 24.3 87 1.6 WSW 4 7 2 4 1009.2 1008.7 0.0
02/07:00am 26.1 31.4 24.3 90 1.2 WSW 4 6 2 3 1009.0 1008.5 0.0
02/06:30am 25.7 30.6 23.7 89 1.4 WSW 4 6 2 3 1008.7 1008.2 0.0
02/06:00am 25.4 30.2 23.5 89 1.3 SSW 4 6 2 3 1008.4 1007.9 0.0
02/05:30am 25.5 30.2 23.4 88 1.4 SSW 4 6 2 3 1008.2 1007.7 0.0
02/05:00am 25.2 29.9 23.3 89 1.3 SSW 4 6 2 3 1008.1 1007.6 0.0
02/04:30am 25.2 29.7 22.9 87 1.6 SSW 4 6 2 3 1008.2 1007.7 0.0
02/04:00am 25.1 30.3 22.8 87 1.6 CALM 0 0 0 0 1008.3 1007.8 0.0
02/03:30am 25.3 30.4 22.6 85 1.8 CALM 0 0 0 0 1008.5 1008.0 0.0
02/03:00am 25.4 30.3 22.3 83 2.1 CALM 0 0 0 0 1008.7 1008.2 0.0
02/02:30am 26.0 30.1 22.3 80 2.5 NW 4 6 2 3 1008.8 1008.3 0.0
02/02:00am 26.4 30.5 21.6 75 3.2 NW 2 6 1 3 1009.2 1008.7 0.0
02/01:30am 26.4 31.4 22.5 79 2.6 CALM 0 4 0 2 1009.2 1008.7 0.0
02/01:00am 26.2 30.6 22.1 78 2.8 NNE 2 9 1 5 1009.5 1009.1 0.0
02/12:30am 26.2 31.2 22.5 80 2.5 CALM 0 0 0 0 1009.6 1009.2 0.0
02/12:00am 26.6 32.0 23.3 82 2.3 CALM 0 0 0 0 1009.8 1009.4 0.0
 
Date/Time
CST
Temp
°C
App
Temp
°C
Dew
Point
°C
Rel
Hum
%
Delta-T
°C
Wind Press
QNH
hPa
Press
MSL
hPa
Rain since
9am
mm
Dir  Spd
km/h
Gust
km/h
Spd
kts
Gust
kts
01/11:30pm 27.3 32.3 22.5 75 3.3 CALM 0 2 0 1 1009.7 1009.3 0.0
01/11:00pm 27.7 32.9 23.5 78 2.9 ENE 2 6 1 3 1009.6 1009.2 0.0
01/10:30pm 28.1 33.4 23.7 77 3.0 N 2 4 1 2 1009.1 1008.6 0.0
01/10:00pm 28.2 34.2 24.2 79 2.8 CALM 0 0 0 0 1008.9 1008.4 0.0
01/09:30pm 28.8 34.5 23.7 74 3.5 CALM 0 0 0 0 1008.7 1008.2 0.0
01/09:00pm 29.3 34.7 23.3 70 4.1 CALM 0 0 0 0 1008.3 1007.8 0.0
01/08:30pm 30.6 35.2 22.5 62 5.5 NW 2 6 1 3 1007.7 1007.2 0.0
01/08:00pm 30.6 35.3 23.3 65 5.0 NW 4 9 2 5 1007.6 1007.1 0.0
01/07:30pm 31.1 36.3 23.5 64 5.3 NW 2 4 1 2 1007.4 1006.9 0.0
01/07:00pm 32.8 38.0 22.9 56 6.8 CALM 0 2 0 1 1006.8 1006.3 0.0
01/06:30pm 34.0 36.9 20.7 45 9.0 NW 6 9 3 5 1006.3 1005.8 0.0
01/06:00pm 36.8 38.6 18.4 34 12.1 WNW 6 9 3 5 1006.2 1005.7 0.0
01/05:30pm 36.8 38.2 17.9 33 12.4 NW 7 11 4 6 1006.2 1005.7 0.0
01/05:00pm 37.9 39.9 17.8 30 13.2 NNW 4 9 2 5 1005.9 1005.4 0.0
01/04:30pm 37.5 38.8 17.0 30 13.3 S 6 9 3 5 1005.7 1005.2 0.0
01/04:00pm 37.9 39.5 17.8 30 13.2 W 6 9 3 5 1005.8 1005.3 0.0
01/03:30pm 37.1 38.4 17.6 31 12.7 WSW 7 13 4 7 1006.3 1005.8 0.0
01/03:00pm 37.1 38.6 18.1 32 12.5 WSW 7 15 4 8 1006.7 1006.2 0.0
01/02:30pm 36.8 38.7 19.7 36 11.5 NW 9 15 5 8 1007.1 1006.6 0.0
01/02:00pm 36.6 39.0 20.0 38 11.1 WNW 7 11 4 6 1007.4 1006.9 0.0
01/01:30pm 35.9 37.6 18.5 36 11.4 W 7 13 4 7 1007.9 1007.4 0.0
01/01:00pm 35.7 37.7 20.0 39 10.5 W 9 22 5 12 1008.3 1007.8 0.0
01/12:30pm 34.6 37.6 22.0 48 8.6 W 9 17 5 9 1008.7 1008.2 0.0
01/12:00pm 34.2 37.9 22.6 50 8.0 W 7 15 4 8 1009.1 1008.6 0.0
01/11:30am 33.4 37.4 23.1 54 7.1 W 7 17 4 9 1009.2 1008.7 0.0
01/11:00am 32.2 36.0 23.4 59 6.1 WNW 9 15 5 8 1009.5 1009.1 0.0
01/10:30am 31.3 35.4 23.9 64 5.2 W 9 15 5 8 1009.8 1009.4 0.0
01/10:00am 30.4 34.5 24.5 70 4.1 W 11 15 6 8 1010.1 1009.7 0.0
01/09:30am 29.8 34.5 24.9 75 3.4 W 9 13 5 7 1010.1 1009.7 0.0
01/09:00am 29.1 33.7 24.2 75 3.4 W 7 13 4 7 1009.8 1009.3 0.0
01/08:30am 28.2 32.9 23.3 75 3.4 WSW 4 9 2 5 1009.6 1009.1 0.0
01/08:00am 26.5 31.6 22.6 79 2.6 CALM 0 4 0 2 1009.1 1008.6 0.0
01/07:30am 24.6 29.9 23.0 91 1.1 CALM 0 4 0 2 1008.7 1008.2 0.0
01/07:00am 22.9 27.4 21.5 92 0.9 CALM 0 0 0 0 1008.5 1008.0 0.0
01/06:30am 22.8 27.2 21.4 92 0.9 CALM 0 0 0 0 1008.2 1007.7 0.0
01/06:00am 23.1 27.6 21.5 91 1.1 CALM 0 0 0 0 1008.1 1007.6 0.0
01/05:30am 23.3 27.3 21.4 89 1.3 SSE 2 4 1 2 1007.8 1007.3 0.0
01/05:00am 23.6 27.7 21.5 88 1.4 SE 2 4 1 2 1007.4 1006.9 0.0
01/04:30am 23.7 27.5 21.6 88 1.4 SE 4 6 2 3 1007.4 1006.9 0.0
01/04:00am 23.6 28.3 21.9 90 1.1 CALM 0 2 0 1 1007.3 1006.8 0.0
01/03:30am 23.8 28.0 21.7 88 1.4 E 2 4 1 2 1007.4 1006.9 0.0
01/03:00am 24.2 29.1 22.3 89 1.3 CALM 0 0 0 0 1007.4 1006.9 0.0
01/02:30am 24.5 28.3 21.6 84 1.9 ENE 4 4 2 2 1007.6 1007.1 0.0
01/02:00am 25.0 29.7 21.9 83 2.1 CALM 0 0 0 0 1007.9 1007.4 0.0
01/01:30am 25.1 28.7 22.0 83 2.1 ENE 6 6 3 3 1008.0 1007.5 0.0
01/01:00am 25.8 30.1 21.9 79 2.6 N 2 4 1 2 1008.2 1007.7 0.0
01/12:30am 26.6 30.0 21.6 74 3.3 NNW 6 7 3 4 1008.3 1007.8 0.0
01/12:00am 26.5 29.9 21.0 72 3.6 E 4 17 2 9 1008.7 1008.2 0.0
 
Date/Time
CST
Temp
°C
App
Temp
°C
Dew
Point
°C
Rel
Hum
%
Delta-T
°C
Wind Press
QNH
hPa
Press
MSL
hPa
Rain since
9am
mm
Dir  Spd
km/h
Gust
km/h
Spd
kts
Gust
kts
28/11:30pm 26.6 29.3 20.2 68 4.2 ESE 6 6 3 3 1008.6 1008.1 0.0
28/11:00pm 27.0 30.2 20.6 68 4.2 ESE 4 6 2 3 1008.6 1008.1 0.0
28/10:30pm 27.0 30.8 21.7 73 3.6 ESE 4 6 2 3 1008.5 1008.0 0.0
28/10:00pm 26.8 30.6 21.6 73 3.5 ENE 4 6 2 3 1008.3 1007.8 0.0
28/09:30pm 27.2 31.5 21.2 69 4.0 CALM 0 0 0 0 1007.8 1007.3 0.0
28/09:00pm 27.6 31.9 21.2 68 4.3 CALM 0 0 0 0 1007.4 1006.9 0.0
28/08:30pm 28.4 32.6 20.9 64 5.0 CALM 0 0 0 0 1006.9 1006.4 0.0
28/08:00pm 29.2 34.0 22.2 66 4.7 CALM 0 0 0 0 1006.6 1006.1 0.0
28/07:30pm 30.5 35.5 23.2 65 5.0 NNE 2 4 1 2 1006.2 1005.7 0.0
28/07:00pm 32.9 36.2 19.0 43 9.1 CALM 0 0 0 0 1005.8 1005.3 0.0
28/06:30pm 35.6 37.0 15.3 29 12.8 E 2 4 1 2 1005.6 1005.1 0.0
28/06:00pm 36.3 35.8 11.9 23 14.7 ESE 6 9 3 5 1005.3 1004.8 0.0
28/05:30pm 36.7 36.4 12.8 24 14.6 ESE 6 11 3 6 1005.0 1004.5 0.0
28/05:00pm 37.2 36.3 10.5 20 15.7 SSW 6 9 3 5 1004.9 1004.4 0.0
28/04:30pm 37.3 36.6 12.0 22 15.3 ESE 7 13 4 7 1005.2 1004.7 0.0
28/04:00pm 37.7 36.7 10.9 20 15.9 E 7 17 4 9 1005.5 1005.0 0.0
28/03:30pm 37.5 38.0 14.1 24 14.6 SSE 4 15 2 8 1005.6 1005.1 0.0
28/03:00pm 36.7 36.7 13.5 25 14.3 ESE 6 11 3 6 1005.9 1005.4 0.0
28/02:30pm 36.4 36.5 13.8 26 14.0 NE 6 9 3 5 1006.4 1005.9 0.0
28/02:00pm 36.4 36.9 15.0 28 13.4 WSW 6 11 3 6 1007.0 1006.5 0.0
28/01:30pm 36.0 37.7 16.2 31 12.6 SSW 2 7 1 4 1007.5 1007.0 0.0
28/01:00pm 35.0 36.7 17.2 34 11.5 NE 4 7 2 4 1007.8 1007.3 0.0
28/12:30pm 35.3 38.8 19.6 39 10.5 CALM 0 6 0 3 1008.1 1007.6 0.0
28/12:00pm 34.1 36.1 17.8 38 10.6 W 4 9 2 5 1008.4 1007.9 0.0
28/11:30am 33.1 35.7 19.2 43 9.2 WNW 4 9 2 5 1008.7 1008.2 0.0
28/11:00am 32.4 35.0 19.3 46 8.6 WNW 4 9 2 5 1009.0 1008.5 0.0
28/10:30am 31.4 34.2 19.7 49 7.7 WNW 4 7 2 4 1009.0 1008.5 0.0
28/10:00am 30.3 33.1 19.6 52 7.0 NNW 4 9 2 5 1009.1 1008.6 0.0
28/09:30am 29.3 32.2 19.0 53 6.7 WNW 2 6 1 3 1008.7 1008.2 0.0
28/09:00am 28.3 30.8 18.1 54 6.5 WNW 2 6 1 3 1008.5 1008.0 0.0
28/08:30am 27.4 29.3 16.7 52 6.7 N 2 4 1 2 1008.4 1007.9 0.0
28/08:00am 27.0 29.9 18.3 59 5.5 CALM 0 0 0 0 1008.2 1007.7 0.0
28/07:30am 23.5 26.2 19.4 78 2.6 E 4 6 2 3 1007.9 1007.4 0.0
28/07:00am 21.9 24.4 19.8 88 1.3 ESE 6 6 3 3 1007.4 1006.9 0.0
28/06:30am 22.1 24.9 19.6 86 1.6 SSE 4 4 2 2 1007.4 1006.9 0.0
28/06:00am 22.1 24.7 19.3 84 1.8 SSE 4 6 2 3 1007.1 1006.6 0.0
28/05:30am 22.1 24.7 19.3 84 1.8 SSE 4 4 2 2 1006.8 1006.3 0.0
28/05:00am 22.3 25.3 20.0 87 1.5 SSE 4 6 2 3 1006.8 1006.3 0.0
28/04:30am 22.4 25.6 20.5 89 1.2 SSE 4 6 2 3 1006.8 1006.3 0.0
28/04:00am 22.5 26.2 19.9 85 1.7 CALM 0 2 0 1 1006.8 1006.3 0.0
28/03:30am 23.5 25.8 19.4 78 2.6 NNE 6 11 3 6 1006.7 1006.2 0.0
28/03:00am 23.2 25.2 18.7 76 2.9 E 6 6 3 3 1006.6 1006.1 0.0
28/02:30am 23.1 26.0 19.9 82 2.1 E 4 6 2 3 1006.6 1006.1 0.0
28/02:00am 23.4 27.5 20.7 85 1.8 CALM 0 4 0 2 1006.7 1006.2 0.0
28/01:30am 23.6 27.5 20.3 82 2.1 CALM 0 0 0 0 1006.8 1006.3 0.0
28/01:00am 24.1 27.0 19.8 77 2.8 E 4 4 2 2 1007.0 1006.5 0.0
28/12:30am 24.6 28.3 19.9 75 3.1 CALM 0 0 0 0 1007.2 1006.7 0.0
28/12:00am 25.6 28.4 19.7 70 3.8 E 4 7 2 4 1007.3 1006.8 0.0
 
Date/Time
CST
Temp
°C
App
Temp
°C
Dew
Point
°C
Rel
Hum
%
Delta-T
°C
Wind Press
QNH
hPa
Press
MSL
hPa
Rain since
9am
mm
Dir  Spd
km/h
Gust
km/h
Spd
kts
Gust
kts
27/11:30pm 25.6 28.7 20.2 72 3.5 ESE 4 6 2 3 1007.3 1006.8 0.0
27/11:00pm 26.0 29.3 20.8 73 3.4 E 4 6 2 3 1007.1 1006.6 0.0
27/10:30pm 26.1 29.2 21.1 74 3.3 ENE 6 6 3 3 1007.0 1006.5 0.0
27/10:00pm 26.3 29.5 21.3 74 3.3 NE 6 7 3 4 1006.7 1006.2 0.0
27/09:30pm 26.6 31.1 22.2 77 3.0 NNE 2 4 1 2 1006.3 1005.8 0.0
27/09:00pm 26.9 32.4 23.4 81 2.4 CALM 0 4 0 2 1005.9 1005.4 0.0
27/08:30pm 27.6 32.8 22.8 75 3.3 CALM 0 0 0 0 1005.5 1005.0 0.0
27/08:00pm 28.6 31.7 20.3 60 5.5 SE 4 4 2 2 1005.1 1004.6 0.0
27/07:30pm 29.9 32.5 19.3 53 6.9 SSE 4 4 2 2 1004.8 1004.3 0.0
27/07:00pm 32.7 35.3 18.5 43 9.2 SE 2 4 1 2 1004.5 1004.0 0.0
27/06:30pm 34.8 35.6 14.7 30 12.5 ESE 4 6 2 3 1004.3 1003.8 0.0
27/06:00pm 35.8 36.3 13.9 27 13.5 SE 4 9 2 5 1004.1 1003.6 0.0
27/05:30pm 35.9 35.8 13.4 26 13.8 ESE 6 13 3 7 1004.1 1003.6 0.0
27/05:00pm 36.4 36.9 15.0 28 13.4 SE 6 13 3 7 1004.2 1003.7 0.0
27/04:30pm 36.3 35.8 12.5 24 14.4 ESE 7 17 4 9 1004.1 1003.6 0.0
27/04:00pm 36.2 35.1 11.8 23 14.6 ESE 9 19 5 10 1004.0 1003.5 0.0
27/03:30pm 36.8 35.8 12.3 23 14.8 SE 9 15 5 8 1004.2 1003.7 0.0
27/03:00pm 36.6 35.7 11.4 22 15.1 SE 7 15 4 8 1004.4 1003.9 0.0
27/02:30pm 36.6 34.3 7.6 17 16.4 SE 9 19 5 10 1004.7 1004.2 0.0
27/02:00pm 35.5 36.5 15.3 30 12.7 SSE 4 9 2 5 1005.2 1004.7 0.0
27/01:30pm 34.9 36.4 15.7 31 12.1 SW 2 6 1 3 1005.7 1005.2 0.0
27/01:00pm 34.3 35.6 17.1 36 11.0 SW 6 11 3 6 1006.1 1005.6 0.0
27/12:30pm 33.6 35.2 16.9 37 10.7 WNW 4 11 2 6 1006.5 1006.0 0.0
27/12:00pm 32.9 34.0 16.7 38 10.3 WSW 6 9 3 5 1006.8 1006.3 0.0
27/11:30am 32.3 33.4 16.6 39 10.0 NW 6 7 3 4 1006.9 1006.4 0.0

Other formats

Comma delimited format used in spreadsheet applications
http://www.bom.gov.au/fwo/IDD60801/IDD60801.94221.axf

JavaScript Object Notation format (JSON) in row-major order
http://www.bom.gov.au/fwo/IDD60801/IDD60801.94221.json

Data quality

Most of these data are generated automatically and are frequently updated. Quality checks on data are not normally performed. It is possible for incorrect values to appear. Refer to information at About Latest Weather Observations and please check the disclaimer before using these data.